createdAt,value
2019-02-14T00:08:24.266Z,-2.00
2019-02-14T00:35:24.843Z,-2.20
2019-02-14T00:37:49.627Z,-2.20
2019-02-14T00:40:19.534Z,-2.10
2019-02-14T00:56:03.482Z,-2.30
2019-02-14T01:13:29.328Z,-2.30
2019-02-14T01:15:59.326Z,-2.60
2019-02-14T01:18:29.746Z,-2.70
2019-02-14T01:24:50.656Z,-2.60
2019-02-14T01:27:20.729Z,-2.80
2019-02-14T01:29:50.653Z,-2.80
2019-02-14T01:32:20.974Z,-2.70
2019-02-14T01:34:50.871Z,-2.60
2019-02-14T01:37:20.767Z,-2.40
2019-02-14T01:39:50.659Z,-2.50
2019-02-14T01:46:11.937Z,-2.60
2019-02-14T01:48:42.002Z,-2.40
2019-02-14T01:51:11.939Z,-2.40
2019-02-14T01:53:41.994Z,-2.40
2019-02-14T01:56:12.925Z,-2.40
2019-02-14T01:58:42.823Z,-2.30
2019-02-14T02:01:12.758Z,-2.20
2019-02-14T02:03:42.719Z,-2.30
2019-02-14T02:06:12.653Z,-2.40
2019-02-14T02:12:34.341Z,-2.70
2019-02-14T02:15:04.711Z,-2.70
2019-02-14T02:24:16.875Z,-2.70
2019-02-14T02:37:25.785Z,-2.90
2019-02-14T02:39:55.716Z,-2.50
2019-02-14T03:21:26.021Z,-3.20
2019-02-14T03:41:50.270Z,-3.10
2019-02-14T03:44:20.839Z,-3.10
2019-02-14T03:46:50.776Z,-3.10
2019-02-14T03:49:20.703Z,-3.20
2019-02-14T03:55:35.479Z,-3.10
2019-02-14T04:21:09.644Z,-2.70
2019-02-14T04:23:39.527Z,-3.00
2019-02-14T04:26:09.464Z,-2.90
2019-02-14T04:28:40.186Z,-2.80
2019-02-14T04:31:10.066Z,-2.70
2019-02-14T04:37:25.165Z,-2.80
2019-02-14T04:39:55.284Z,-2.90
2019-02-14T05:01:58.325Z,-3.20
2019-02-14T05:37:38.110Z,-3.50
2019-02-14T06:03:38.253Z,-3.70
2019-02-14T06:15:46.755Z,-3.50
2019-02-14T06:18:16.706Z,-3.30
2019-02-14T06:20:46.596Z,-3.40
2019-02-14T06:23:16.743Z,-3.50
2019-02-14T06:25:46.663Z,-3.50
2019-02-14T06:28:16.564Z,-3.50
2019-02-14T06:42:16.385Z,-3.80
2019-02-14T06:44:46.302Z,-3.70
2019-02-14T06:47:16.461Z,-3.70
2019-02-14T06:49:46.400Z,-3.60
2019-02-14T06:52:16.483Z,-3.50
2019-02-14T06:54:46.400Z,-3.40
2019-02-14T06:57:16.300Z,-3.40
2019-02-14T06:59:46.242Z,-3.30
2019-02-14T07:02:16.086Z,-3.20
2019-02-14T07:08:18.904Z,-3.10
2019-02-14T07:37:26.877Z,-2.60
2019-02-14T07:39:56.997Z,-2.60
2019-02-14T07:42:27.197Z,-2.50
2019-02-14T07:44:57.426Z,-2.10
2019-02-14T07:47:27.350Z,-2.00
2019-02-14T07:49:57.255Z,-2.00
2019-02-14T07:52:27.297Z,-1.90
2019-02-14T07:54:57.226Z,-1.60
2019-02-14T07:57:27.421Z,-1.40
2019-02-14T07:59:57.558Z,-1.20
2019-02-14T08:02:27.614Z,-1.30
2019-02-14T08:04:57.947Z,-1.40
2019-02-14T08:07:35.659Z,-1.30
2019-02-14T08:09:59.527Z,-1.10
2019-02-14T08:12:29.418Z,-0.80
2019-02-14T08:14:59.391Z,-0.70
2019-02-14T08:17:29.308Z,-0.80
2019-02-14T08:20:00.238Z,-0.70
2019-02-14T08:22:30.318Z,-0.50
2019-02-14T08:25:00.337Z,-0.30
2019-02-14T08:27:30.254Z,0.00
2019-02-14T08:30:00.270Z,0.40
2019-02-14T08:32:30.233Z,0.70
2019-02-14T08:35:00.340Z,0.90
2019-02-14T08:37:30.241Z,1.10
2019-02-14T08:40:00.246Z,1.50
2019-02-14T08:42:30.425Z,1.80
2019-02-14T08:45:00.497Z,2.00
2019-02-14T08:47:30.399Z,2.10
2019-02-14T08:50:00.330Z,2.20
2019-02-14T08:52:30.221Z,2.40
2019-02-14T08:55:00.309Z,2.60
2019-02-14T08:57:30.670Z,2.90
2019-02-14T09:00:00.906Z,2.70
2019-02-14T09:02:30.887Z,2.70
2019-02-14T09:05:00.772Z,2.50
2019-02-14T09:07:30.708Z,2.30
2019-02-14T09:10:00.666Z,2.20
2019-02-14T09:12:30.613Z,1.90
2019-02-14T09:15:00.613Z,1.90
2019-02-14T09:17:30.572Z,2.20
2019-02-14T09:20:00.454Z,2.30
2019-02-14T09:22:30.339Z,2.40
2019-02-14T09:25:00.357Z,2.60
2019-02-14T09:27:30.238Z,3.00
2019-02-14T09:30:00.305Z,3.40
2019-02-14T09:32:30.493Z,3.80
2019-02-14T09:35:00.412Z,4.00
2019-02-14T09:37:30.324Z,4.30
2019-02-14T09:40:00.242Z,4.30
2019-02-14T09:42:30.268Z,4.50
2019-02-14T09:45:00.318Z,4.50
2019-02-14T09:47:30.939Z,4.60
2019-02-14T09:53:52.519Z,4.70
2019-02-14T09:56:22.417Z,4.70
2019-02-14T10:05:27.808Z,4.80
2019-02-14T10:07:57.786Z,4.70
2019-02-14T10:24:12.499Z,5.00
2019-02-14T10:34:02.212Z,5.40
2019-02-14T10:36:32.143Z,5.50
2019-02-14T10:39:02.810Z,5.50
2019-02-14T10:41:32.682Z,5.80
2019-02-14T10:44:02.556Z,6.00
2019-02-14T10:46:32.474Z,6.00
2019-02-14T10:49:02.378Z,6.10
2019-02-14T10:51:32.332Z,6.10
2019-02-14T10:54:02.212Z,6.10
2019-02-14T10:56:32.085Z,6.10
2019-02-14T10:59:01.966Z,6.50
2019-02-14T11:05:23.581Z,7.40
2019-02-14T11:15:34.724Z,8.30
2019-02-14T11:18:04.620Z,8.60
2019-02-14T11:20:34.604Z,8.70
2019-02-14T11:23:04.487Z,8.70
2019-02-14T11:32:50.828Z,9.00
2019-02-14T11:35:20.713Z,9.00
2019-02-14T11:52:00.492Z,10.70
2019-02-14T11:54:30.445Z,10.90
2019-02-14T12:13:45.174Z,11.70
2019-02-14T12:16:15.068Z,11.60
2019-02-14T12:18:45.400Z,11.40
2019-02-14T12:25:00.934Z,12.60
2019-02-14T12:35:08.683Z,11.70
2019-02-14T12:37:38.579Z,10.90
2019-02-14T13:07:03.345Z,13.00
2019-02-14T13:09:33.463Z,13.10
2019-02-14T13:12:03.401Z,13.20
2019-02-14T13:14:33.337Z,13.40
2019-02-14T13:17:03.293Z,13.60
2019-02-14T13:19:33.524Z,13.40
2019-02-14T13:22:04.269Z,13.90
2019-02-14T13:24:34.886Z,13.80
2019-02-14T13:27:04.768Z,13.10
2019-02-14T13:29:35.346Z,13.00
2019-02-14T13:32:05.308Z,13.60
2019-02-14T13:34:35.435Z,14.10
2019-02-14T13:37:06.084Z,13.90
2019-02-14T13:43:27.293Z,13.60
2019-02-14T13:45:57.557Z,13.40
2019-02-14T13:48:27.523Z,13.20
2019-02-14T13:54:49.234Z,12.70
2019-02-14T13:57:19.162Z,12.00
2019-02-14T13:59:49.064Z,12.00
2019-02-14T14:02:19.204Z,12.10
2019-02-14T14:28:45.283Z,10.90
2019-02-14T14:49:10.564Z,9.90
2019-02-14T15:14:40.059Z,9.70
2019-02-14T15:23:59.945Z,9.20
2019-02-14T16:04:33.157Z,7.20
2019-02-14T16:14:19.202Z,7.00
2019-02-14T16:16:49.755Z,6.80
2019-02-14T16:35:04.295Z,5.40
2019-02-14T16:37:34.322Z,5.20
2019-02-14T16:40:04.770Z,5.20
2019-02-14T16:42:34.672Z,5.30
2019-02-14T16:45:04.950Z,5.40
2019-02-14T16:51:26.824Z,5.40
2019-02-14T16:53:57.520Z,5.30
2019-02-14T16:56:27.462Z,5.00
2019-02-14T16:58:57.368Z,4.70
2019-02-14T17:01:27.246Z,4.60
2019-02-14T17:03:57.216Z,4.70
2019-02-14T17:06:27.150Z,4.70
2019-02-14T17:08:57.248Z,4.80
2019-02-14T17:11:27.687Z,4.80
2019-02-14T17:13:57.661Z,4.70
2019-02-14T17:16:27.562Z,4.40
2019-02-14T17:30:26.261Z,4.40
2019-02-14T17:32:56.180Z,4.20
2019-02-14T17:50:27.753Z,3.40
2019-02-14T17:52:57.672Z,3.20
2019-02-14T17:55:27.635Z,3.00
2019-02-14T18:24:54.015Z,2.30
2019-02-14T18:27:23.983Z,2.70
2019-02-14T18:29:53.887Z,2.90
2019-02-14T18:32:23.833Z,2.60
2019-02-14T18:34:53.728Z,2.40
2019-02-14T18:37:24.408Z,2.30
2019-02-14T18:39:54.295Z,2.20
2019-02-14T18:46:14.972Z,2.00
2019-02-14T18:48:44.848Z,1.90
2019-02-14T19:13:53.025Z,1.60
2019-02-14T19:16:22.931Z,1.60
2019-02-14T19:18:52.856Z,1.70
2019-02-14T19:21:22.756Z,2.10
2019-02-14T19:23:52.883Z,1.90
2019-02-14T19:30:15.143Z,1.40
2019-02-14T19:42:56.155Z,2.20
2019-02-14T19:45:36.041Z,2.10
2019-02-14T19:47:58.260Z,1.90
2019-02-14T19:50:28.262Z,1.50
2019-02-14T19:52:58.450Z,1.20
2019-02-14T19:55:28.446Z,1.30
2019-02-14T20:09:28.243Z,1.10
2019-02-14T20:11:58.152Z,1.30
2019-02-14T20:14:28.324Z,1.10
2019-02-14T20:16:58.225Z,1.20
2019-02-14T20:23:13.676Z,1.20
2019-02-14T20:25:43.897Z,1.00
2019-02-14T20:35:25.962Z,0.90
2019-02-14T20:37:55.883Z,0.90
2019-02-14T20:40:25.927Z,0.60
2019-02-14T20:42:55.834Z,0.40
2019-02-14T20:49:10.787Z,0.10
2019-02-14T20:51:40.669Z,0.10
2019-02-14T20:54:10.706Z,0.40
2019-02-14T20:56:40.617Z,0.30
2019-02-14T21:10:39.111Z,0.30
2019-02-14T21:23:36.586Z,0.40
2019-02-14T21:26:06.521Z,0.40
2019-02-14T21:28:36.457Z,0.40
2019-02-14T21:31:06.348Z,0.70
2019-02-14T21:33:36.239Z,1.10
2019-02-14T21:36:06.424Z,0.90
2019-02-14T21:38:36.360Z,0.40
2019-02-14T21:41:06.536Z,0.20
2019-02-14T21:47:28.211Z,0.00
2019-02-14T21:57:17.302Z,-0.10
2019-02-14T21:59:47.332Z,-0.30
2019-02-14T22:16:30.011Z,-0.30
2019-02-14T22:18:59.899Z,-0.40
2019-02-14T22:21:29.821Z,-0.60
2019-02-14T22:23:59.973Z,-0.70
2019-02-14T22:26:30.439Z,-0.80
2019-02-14T22:29:00.331Z,-0.80
2019-02-14T22:31:30.256Z,-0.70
2019-02-14T22:34:00.193Z,-0.60
2019-02-14T22:36:30.105Z,-0.70
2019-02-14T22:39:00.177Z,-0.50
2019-02-14T22:41:30.307Z,-0.40
2019-02-14T22:44:00.180Z,-0.40
2019-02-14T22:46:30.075Z,-0.40
2019-02-14T22:48:59.966Z,-0.70
2019-02-14T22:51:29.871Z,-0.80
2019-02-14T22:54:00.335Z,-0.80
2019-02-14T22:56:30.283Z,-0.80
2019-02-14T22:59:00.437Z,-0.80
2019-02-14T23:01:30.410Z,-0.80
2019-02-14T23:07:51.252Z,-1.10
2019-02-14T23:10:21.278Z,-1.20
2019-02-14T23:12:55.833Z,-1.20
2019-02-14T23:15:22.844Z,-1.00
2019-02-14T23:21:37.636Z,-0.80
2019-02-14T23:41:20.884Z,-0.80
2019-02-14T23:53:20.931Z,-1.10
